Terminal Aerodrome Forecast
Issued by NWS Pocatello, ID

Home | Current Version | Previous Version | Text Only | Print | Product List | Glossary On
Versions: 1 2 3 4 5 6 7 8 9 10 11 12 13 14
000
FTUS45 KPIH 302300
TAFIDA
TAF
KIDA 302321Z 3100/3124 19012G20KT P6SM SCT070 BKN100
     FM310600 20011KT P6SM VCSH SCT030 BKN050
     FM311500 21010KT P6SM SCT050 BKN100
     FM311700 21014G20KT P6SM BKN120=

USA.gov is the U.S. government's official web portal to all federal, state and local government web resources and services.